createdAt,value
2017-05-18T00:01:44.122Z,3.78
2017-05-18T00:04:10.486Z,3.96
2017-05-18T00:06:36.836Z,4.86
2017-05-18T00:09:03.939Z,5.84
2017-05-18T00:11:30.913Z,3.84
2017-05-18T00:13:58.005Z,3.28
2017-05-18T00:16:24.402Z,4.04
2017-05-18T00:18:50.896Z,3.58
2017-05-18T00:21:17.276Z,3.76
2017-05-18T00:23:44.316Z,4.06
2017-05-18T00:26:10.658Z,3.46
2017-05-18T00:28:37.036Z,4.30
2017-05-18T00:31:03.449Z,5.42
2017-05-18T00:33:29.826Z,4.72
2017-05-18T00:35:56.154Z,3.82
2017-05-18T00:38:22.510Z,3.50
2017-05-18T00:40:48.836Z,3.74
2017-05-18T00:43:15.183Z,3.54
2017-05-18T00:45:41.525Z,5.68
2017-05-18T00:48:07.861Z,5.28
2017-05-18T00:50:34.196Z,3.58
2017-05-18T00:53:00.557Z,6.08
2017-05-18T00:55:26.903Z,3.94
2017-05-18T00:57:53.562Z,3.74
2017-05-18T01:00:23.390Z,3.76
2017-05-18T01:02:49.885Z,3.98
2017-05-18T01:05:16.335Z,3.80
2017-05-18T01:07:43.078Z,6.62
2017-05-18T01:10:09.774Z,4.06
2017-05-18T01:12:36.304Z,6.04
2017-05-18T01:15:02.665Z,4.28
2017-05-18T01:17:29.036Z,4.10
2017-05-18T01:19:55.403Z,4.36
2017-05-18T01:22:21.734Z,3.94
2017-05-18T01:24:48.083Z,3.44
2017-05-18T01:27:14.431Z,3.64
2017-05-18T01:29:40.765Z,3.78
2017-05-18T01:32:07.124Z,3.80
2017-05-18T01:34:33.520Z,4.10
2017-05-18T01:36:59.877Z,3.70
2017-05-18T01:39:26.278Z,3.34
2017-05-18T01:41:52.634Z,4.00
2017-05-18T01:44:19.022Z,6.08
2017-05-18T01:46:45.379Z,3.56
2017-05-18T01:49:11.773Z,4.22
2017-05-18T01:51:38.158Z,3.14
2017-05-18T01:54:04.477Z,3.62
2017-05-18T01:56:30.823Z,3.82
2017-05-18T01:58:57.236Z,4.10
2017-05-18T02:01:23.571Z,6.50
2017-05-18T02:03:49.943Z,4.18
2017-05-18T02:06:16.284Z,3.30
2017-05-18T02:08:42.645Z,4.34
2017-05-18T02:11:08.975Z,6.68
2017-05-18T02:13:35.326Z,8.90
2017-05-18T02:16:01.666Z,3.72
2017-05-18T02:18:27.773Z,3.68
2017-05-18T02:20:54.149Z,4.30
2017-05-18T02:23:20.478Z,4.02
2017-05-18T02:25:46.820Z,3.74
2017-05-18T02:28:13.178Z,7.56
2017-05-18T02:30:39.506Z,4.92
2017-05-18T02:33:05.845Z,7.80
2017-05-18T02:35:32.209Z,4.96
2017-05-18T02:37:58.541Z,7.82
2017-05-18T02:40:24.862Z,4.22
2017-05-18T02:42:51.199Z,6.84
2017-05-18T02:45:17.516Z,4.20
2017-05-18T02:47:43.860Z,5.56
2017-05-18T02:50:10.212Z,3.44
2017-05-18T02:52:36.666Z,4.44
2017-05-18T02:55:03.014Z,4.00
2017-05-18T02:57:29.352Z,4.06
2017-05-18T02:59:55.708Z,4.12
2017-05-18T03:02:22.112Z,4.54
2017-05-18T03:04:48.437Z,4.92
2017-05-18T03:07:14.880Z,4.06
2017-05-18T03:09:41.570Z,3.68
2017-05-18T03:12:08.474Z,6.02
2017-05-18T03:14:35.012Z,3.76
2017-05-18T03:17:02.025Z,5.02
2017-05-18T03:19:28.714Z,3.76
2017-05-18T03:21:55.912Z,4.38
2017-05-18T03:24:22.307Z,3.80
2017-05-18T03:26:48.681Z,4.12
2017-05-18T03:29:15.790Z,3.78
2017-05-18T03:31:42.200Z,3.78
2017-05-18T03:34:08.535Z,4.64
2017-05-18T03:36:35.089Z,6.14
2017-05-18T03:39:01.456Z,4.00
2017-05-18T03:41:27.804Z,3.68
2017-05-18T03:43:54.163Z,5.40
2017-05-18T03:46:20.531Z,4.24
2017-05-18T03:48:46.906Z,4.16
2017-05-18T03:51:13.274Z,3.50
2017-05-18T03:53:39.649Z,4.40
2017-05-18T03:56:05.988Z,4.22
2017-05-18T03:58:32.354Z,4.72
2017-05-18T04:00:58.689Z,5.22
2017-05-18T04:03:25.094Z,3.92
2017-05-18T04:05:51.437Z,4.02
2017-05-18T04:08:17.789Z,5.76
2017-05-18T04:10:44.156Z,4.20
2017-05-18T04:13:10.537Z,4.68
2017-05-18T04:15:36.914Z,4.28
2017-05-18T04:18:03.230Z,4.48
2017-05-18T04:20:32.419Z,6.60
2017-05-18T04:22:58.801Z,6.48
2017-05-18T04:25:25.230Z,5.08
2017-05-18T04:27:51.897Z,5.12
2017-05-18T04:30:18.219Z,4.32
2017-05-18T04:32:44.580Z,5.26
2017-05-18T04:35:10.959Z,6.08
2017-05-18T04:37:37.295Z,4.28
2017-05-18T04:40:03.641Z,4.12
2017-05-18T04:42:29.999Z,5.80
2017-05-18T04:44:56.376Z,4.86
2017-05-18T04:47:22.771Z,7.62
2017-05-18T04:49:49.149Z,4.32
2017-05-18T04:52:15.487Z,11.34
2017-05-18T04:54:41.832Z,4.50
2017-05-18T04:57:08.212Z,4.62
2017-05-18T04:59:34.548Z,6.32
2017-05-18T05:02:01.033Z,6.16
2017-05-18T05:04:27.343Z,4.14
2017-05-18T05:06:53.666Z,6.62
2017-05-18T05:09:19.997Z,3.78
2017-05-18T05:11:46.319Z,3.96
2017-05-18T05:14:12.637Z,7.22
2017-05-18T05:16:38.956Z,3.74
2017-05-18T05:19:05.263Z,3.52
2017-05-18T05:21:31.576Z,4.10
2017-05-18T05:23:57.906Z,3.28
2017-05-18T05:26:24.227Z,3.66
2017-05-18T05:28:50.598Z,4.60
2017-05-18T05:31:16.915Z,9.92
2017-05-18T05:33:43.278Z,3.48
2017-05-18T05:36:09.609Z,3.36
2017-05-18T05:38:35.930Z,3.64
2017-05-18T05:41:02.257Z,3.38
2017-05-18T05:43:28.557Z,4.22
2017-05-18T05:45:54.925Z,4.04
2017-05-18T05:48:21.238Z,3.94
2017-05-18T05:50:47.595Z,3.80
2017-05-18T05:53:13.929Z,3.98
2017-05-18T05:55:40.242Z,3.62
2017-05-18T05:58:06.580Z,4.28
2017-05-18T06:00:32.893Z,4.02
2017-05-18T06:02:59.227Z,4.06
2017-05-18T06:05:25.572Z,4.50
2017-05-18T06:07:51.875Z,5.26
2017-05-18T06:10:18.194Z,6.10
2017-05-18T06:12:44.535Z,3.98
2017-05-18T06:15:10.855Z,4.62
2017-05-18T06:17:37.194Z,7.42
2017-05-18T06:20:03.544Z,3.92
2017-05-18T06:22:29.879Z,7.68
2017-05-18T06:24:56.233Z,7.28
2017-05-18T06:27:22.560Z,4.82
2017-05-18T06:29:48.909Z,3.62
2017-05-18T06:32:15.263Z,3.54
2017-05-18T06:34:41.633Z,4.10
2017-05-18T06:37:07.952Z,5.46
2017-05-18T06:39:34.288Z,4.06
2017-05-18T06:42:00.622Z,4.30
2017-05-18T06:44:26.922Z,4.98
2017-05-18T06:46:53.259Z,6.08
2017-05-18T06:49:19.578Z,5.00
2017-05-18T06:51:45.902Z,5.54
2017-05-18T06:54:12.265Z,6.42
2017-05-18T06:56:38.608Z,5.40
2017-05-18T06:59:04.931Z,5.72
2017-05-18T07:01:31.240Z,9.70
2017-05-18T07:03:57.595Z,5.04
2017-05-18T07:06:23.922Z,5.98
2017-05-18T07:08:50.256Z,9.68
2017-05-18T07:11:16.631Z,6.00
2017-05-18T07:13:42.962Z,8.34
2017-05-18T07:16:09.274Z,5.78
2017-05-18T07:18:35.624Z,5.78
2017-05-18T07:21:01.962Z,5.52
2017-05-18T07:23:28.283Z,5.64
2017-05-18T07:25:54.678Z,6.70
2017-05-18T07:28:21.013Z,6.94
2017-05-18T07:30:47.333Z,5.92
2017-05-18T07:33:13.680Z,5.82
2017-05-18T07:35:40.031Z,5.64
2017-05-18T07:38:06.346Z,4.28
2017-05-18T07:40:32.682Z,5.40
2017-05-18T07:42:59.022Z,6.16
2017-05-18T07:45:25.549Z,5.20
2017-05-18T07:47:51.886Z,6.84
2017-05-18T07:50:18.195Z,7.76
2017-05-18T07:52:44.516Z,6.26
2017-05-18T07:55:10.844Z,6.74
2017-05-18T07:57:37.194Z,8.62
2017-05-18T08:00:03.527Z,7.46
2017-05-18T08:02:29.830Z,8.96
2017-05-18T08:04:56.181Z,8.52
2017-05-18T08:07:22.495Z,7.96
2017-05-18T08:09:48.847Z,9.58
2017-05-18T08:12:15.221Z,12.60
2017-05-18T08:14:42.157Z,8.56
2017-05-18T08:17:08.487Z,9.18
2017-05-18T08:19:34.841Z,9.78
2017-05-18T08:24:39.634Z,10.34
2017-05-18T08:27:05.971Z,10.60
2017-05-18T08:29:32.310Z,10.00
2017-05-18T08:31:58.638Z,10.48
2017-05-18T08:34:24.933Z,9.50
2017-05-18T08:36:51.257Z,8.44
2017-05-18T08:39:17.601Z,8.22
2017-05-18T08:41:43.917Z,9.04
2017-05-18T08:44:10.267Z,9.60
2017-05-18T08:46:36.591Z,10.64
2017-05-18T08:49:02.925Z,12.08
2017-05-18T08:51:29.370Z,8.70
2017-05-18T08:53:55.686Z,8.02
2017-05-18T08:56:21.999Z,7.38
2017-05-18T08:58:48.373Z,6.52
2017-05-18T09:01:14.703Z,7.22
2017-05-18T09:03:41.052Z,6.38
2017-05-18T09:06:07.392Z,6.80
2017-05-18T09:08:33.713Z,6.78
2017-05-18T09:11:00.034Z,7.52
2017-05-18T09:13:26.400Z,8.00
2017-05-18T09:15:52.734Z,6.60
2017-05-18T09:18:19.102Z,7.74
2017-05-18T09:20:45.461Z,7.38
2017-05-18T09:23:11.802Z,7.32
2017-05-18T09:25:38.179Z,8.14
2017-05-18T09:28:04.512Z,7.26
2017-05-18T09:30:30.865Z,5.72
2017-05-18T09:32:57.199Z,7.90
2017-05-18T09:35:23.517Z,8.62
2017-05-18T09:37:49.893Z,6.76
2017-05-18T09:40:16.335Z,7.26
2017-05-18T09:42:42.676Z,9.46
2017-05-18T09:45:09.002Z,6.54
2017-05-18T09:47:35.310Z,8.48
2017-05-18T09:50:01.662Z,10.04
2017-05-18T09:52:28.008Z,14.80
2017-05-18T09:54:54.347Z,15.06
2017-05-18T09:57:20.677Z,20.14
2017-05-18T09:59:47.028Z,20.76
2017-05-18T10:02:13.363Z,22.12
2017-05-18T10:04:39.691Z,22.74
2017-05-18T10:07:05.995Z,21.70
2017-05-18T10:09:32.350Z,17.68
2017-05-18T10:11:58.666Z,18.14
2017-05-18T10:14:25.025Z,17.18
2017-05-18T10:16:51.753Z,19.08
2017-05-18T10:19:18.115Z,17.78
2017-05-18T10:21:44.473Z,17.42
2017-05-18T10:24:10.826Z,19.66
2017-05-18T10:26:37.211Z,21.30
2017-05-18T10:29:03.562Z,22.68
2017-05-18T10:31:29.892Z,25.42
2017-05-18T10:33:56.220Z,26.88
2017-05-18T10:36:22.548Z,34.28
2017-05-18T10:38:48.894Z,34.10
2017-05-18T10:41:15.237Z,35.78
2017-05-18T10:43:41.587Z,35.74
2017-05-18T10:46:07.929Z,37.34
2017-05-18T10:48:34.254Z,35.52
2017-05-18T10:51:00.689Z,34.96
2017-05-18T10:53:27.124Z,36.74
2017-05-18T10:55:53.526Z,38.66
2017-05-18T10:58:19.931Z,37.82
2017-05-18T11:00:46.349Z,33.66
2017-05-18T11:03:12.696Z,34.56
2017-05-18T11:05:39.127Z,38.06
2017-05-18T11:08:05.514Z,38.82
2017-05-18T11:10:31.860Z,35.68
2017-05-18T11:12:58.225Z,36.70
2017-05-18T11:15:24.625Z,37.24
2017-05-18T11:17:50.946Z,36.96
2017-05-18T11:20:17.302Z,39.60
2017-05-18T11:22:43.698Z,40.22
2017-05-18T11:25:12.198Z,36.64
2017-05-18T11:27:38.519Z,44.04
2017-05-18T11:30:04.861Z,41.86
2017-05-18T11:32:31.211Z,42.18
2017-05-18T11:34:57.549Z,46.34
2017-05-18T11:37:23.909Z,46.94
2017-05-18T11:39:50.245Z,47.08
2017-05-18T11:42:16.585Z,51.98
2017-05-18T11:44:42.942Z,56.28
2017-05-18T11:47:09.310Z,50.68
2017-05-18T11:49:35.650Z,57.58
2017-05-18T11:52:01.984Z,51.10
2017-05-18T11:54:28.319Z,64.94
2017-05-18T11:56:55.028Z,59.48
2017-05-18T11:59:22.659Z,59.12
2017-05-18T12:01:49.040Z,55.78
2017-05-18T12:04:15.414Z,52.56
2017-05-18T12:06:41.767Z,48.54
2017-05-18T12:09:09.022Z,50.80
2017-05-18T12:11:35.375Z,50.42
2017-05-18T12:14:01.733Z,42.16
2017-05-18T12:16:28.069Z,40.86
2017-05-18T12:18:54.401Z,44.62
2017-05-18T12:21:20.825Z,42.46
2017-05-18T12:23:47.196Z,38.36
2017-05-18T12:26:13.559Z,44.28
2017-05-18T12:28:39.970Z,35.92
2017-05-18T12:31:06.345Z,34.48
2017-05-18T12:33:32.741Z,36.48
2017-05-18T12:35:59.171Z,37.78
2017-05-18T12:38:25.553Z,40.94
2017-05-18T12:40:51.982Z,36.04
2017-05-18T12:43:18.383Z,43.70
2017-05-18T12:45:44.889Z,38.10
2017-05-18T12:48:11.235Z,40.78
2017-05-18T12:50:37.600Z,36.22
2017-05-18T12:53:03.988Z,35.56
2017-05-18T12:55:30.337Z,40.98
2017-05-18T12:57:56.671Z,33.98
2017-05-18T13:00:23.009Z,26.92
2017-05-18T13:02:49.400Z,24.30
2017-05-18T13:05:15.740Z,27.98
2017-05-18T13:07:42.070Z,23.60
2017-05-18T13:10:08.422Z,23.44
2017-05-18T13:12:34.745Z,23.00
2017-05-18T13:15:01.105Z,23.92
2017-05-18T13:17:27.453Z,24.60
2017-05-18T13:19:53.821Z,24.10
2017-05-18T13:22:20.210Z,24.86
2017-05-18T13:24:46.547Z,24.90
2017-05-18T13:27:12.883Z,22.68
2017-05-18T13:29:39.240Z,25.96
2017-05-18T13:32:05.594Z,24.64
2017-05-18T13:34:31.999Z,28.78
2017-05-18T13:36:58.369Z,27.38
2017-05-18T13:39:24.722Z,28.14
2017-05-18T13:41:51.160Z,29.40
2017-05-18T13:44:18.517Z,30.64
2017-05-18T13:46:44.942Z,33.38
2017-05-18T13:49:11.273Z,29.60
2017-05-18T13:51:37.631Z,29.26
2017-05-18T13:54:03.970Z,33.02
2017-05-18T13:56:30.357Z,30.58
2017-05-18T13:58:56.688Z,30.32
2017-05-18T14:01:23.032Z,28.36
2017-05-18T14:03:49.378Z,32.56
2017-05-18T14:06:15.730Z,32.26
2017-05-18T14:08:42.089Z,34.76
2017-05-18T14:11:08.436Z,30.14
2017-05-18T14:13:34.778Z,32.48
2017-05-18T14:16:01.113Z,29.84
2017-05-18T14:18:27.504Z,32.20
2017-05-18T14:20:53.853Z,31.80
2017-05-18T14:23:20.225Z,34.76
2017-05-18T14:25:46.603Z,30.52
2017-05-18T14:28:12.949Z,28.02
2017-05-18T14:30:39.284Z,28.78
2017-05-18T14:33:05.627Z,30.54
2017-05-18T14:35:31.954Z,30.76
2017-05-18T14:37:58.284Z,32.16
2017-05-18T14:40:24.653Z,31.96
2017-05-18T14:42:51.021Z,29.56
2017-05-18T14:45:17.372Z,31.14
2017-05-18T14:47:43.711Z,27.90
2017-05-18T14:50:10.062Z,30.24
2017-05-18T14:52:36.395Z,30.54
2017-05-18T14:55:02.753Z,29.18
2017-05-18T14:57:29.130Z,27.62
2017-05-18T14:59:55.477Z,27.26
2017-05-18T15:02:21.819Z,26.42
2017-05-18T15:04:48.147Z,27.10
2017-05-18T15:07:14.486Z,26.50
2017-05-18T15:09:40.791Z,29.14
2017-05-18T15:12:07.151Z,26.90
2017-05-18T15:14:33.489Z,26.26
2017-05-18T15:16:59.831Z,25.54
2017-05-18T15:19:26.166Z,25.74
2017-05-18T15:21:52.528Z,25.14
2017-05-18T15:24:18.925Z,23.62
2017-05-18T15:26:45.256Z,25.58
2017-05-18T15:29:11.594Z,27.56
2017-05-18T15:31:37.958Z,24.34
2017-05-18T15:34:04.348Z,24.18
2017-05-18T15:36:30.723Z,23.54
2017-05-18T15:38:57.061Z,25.52
2017-05-18T15:41:23.415Z,23.94
2017-05-18T15:43:49.742Z,22.66
2017-05-18T15:46:16.169Z,21.92
2017-05-18T15:48:42.492Z,22.86
2017-05-18T15:51:08.852Z,21.86
2017-05-18T15:53:35.173Z,21.98
2017-05-18T15:56:01.517Z,25.36
2017-05-18T15:58:27.867Z,21.32
2017-05-18T16:00:54.238Z,20.02
2017-05-18T16:03:24.402Z,16.36
2017-05-18T16:05:54.448Z,17.44
2017-05-18T16:08:20.979Z,19.48
2017-05-18T16:10:47.329Z,19.60
2017-05-18T16:13:13.728Z,18.90
2017-05-18T16:15:40.117Z,19.12
2017-05-18T16:18:06.442Z,18.36
2017-05-18T16:20:32.826Z,19.80
2017-05-18T16:22:59.146Z,18.86
2017-05-18T16:25:25.485Z,25.28
2017-05-18T16:27:51.847Z,26.80
2017-05-18T16:30:18.235Z,26.42
2017-05-18T16:32:44.542Z,27.46
2017-05-18T16:35:10.879Z,26.46
2017-05-18T16:37:37.216Z,26.68
2017-05-18T16:40:03.784Z,24.60
2017-05-18T16:42:30.179Z,26.80
2017-05-18T16:44:56.544Z,26.44
2017-05-18T16:47:22.886Z,29.44
2017-05-18T16:49:49.209Z,22.98
2017-05-18T16:52:15.543Z,21.56
2017-05-18T16:54:41.872Z,21.54
2017-05-18T16:57:08.208Z,23.08
2017-05-18T16:59:34.598Z,22.38
2017-05-18T17:02:00.925Z,22.36
2017-05-18T17:04:27.833Z,20.62
2017-05-18T17:06:54.207Z,22.08
2017-05-18T17:09:20.617Z,23.00
2017-05-18T17:11:47.035Z,21.72
2017-05-18T17:14:14.433Z,21.52
2017-05-18T17:16:40.840Z,20.76
2017-05-18T17:19:07.233Z,20.34
2017-05-18T17:21:33.587Z,19.74
2017-05-18T17:23:59.918Z,20.74
2017-05-18T17:26:26.265Z,19.10
2017-05-18T17:28:52.618Z,19.54
2017-05-18T17:31:18.965Z,19.62
2017-05-18T17:33:45.354Z,18.94
2017-05-18T17:36:11.690Z,19.92
2017-05-18T17:38:38.034Z,19.74
2017-05-18T17:41:04.392Z,19.28
2017-05-18T17:43:30.759Z,20.52
2017-05-18T17:45:57.112Z,20.80
2017-05-18T17:48:23.991Z,16.08
2017-05-18T17:50:50.335Z,16.84
2017-05-18T17:53:16.672Z,16.70
2017-05-18T17:55:43.056Z,17.72
2017-05-18T17:58:09.482Z,16.60
2017-05-18T18:00:36.236Z,17.88
2017-05-18T18:03:02.689Z,18.30
2017-05-18T18:05:34.296Z,19.08
2017-05-18T18:08:00.857Z,18.82
2017-05-18T18:10:27.346Z,18.00
2017-05-18T18:12:59.177Z,19.48
2017-05-18T18:15:25.709Z,16.48
2017-05-18T18:17:57.362Z,17.80
2017-05-18T18:20:23.765Z,17.62
2017-05-18T18:22:50.297Z,18.76
2017-05-18T18:25:16.775Z,17.10
2017-05-18T18:27:48.493Z,17.04
2017-05-18T18:30:20.035Z,16.24
2017-05-18T18:32:47.447Z,16.14
2017-05-18T18:35:19.534Z,15.88
2017-05-18T18:37:45.881Z,14.74
2017-05-18T18:40:12.860Z,14.28
2017-05-18T18:42:47.290Z,15.56
2017-05-18T18:45:18.969Z,15.86
2017-05-18T18:47:45.887Z,17.24
2017-05-18T18:50:13.198Z,17.44
2017-05-18T18:52:45.049Z,16.30
2017-05-18T18:55:17.986Z,18.06
2017-05-18T18:57:45.121Z,18.94
2017-05-18T19:00:11.735Z,18.56
2017-05-18T19:02:38.584Z,19.08
2017-05-18T19:05:06.090Z,22.18
2017-05-18T19:07:32.760Z,21.10
2017-05-18T19:10:06.545Z,22.76
2017-05-18T19:12:33.117Z,27.46
2017-05-18T19:15:00.633Z,28.78
2017-05-18T19:17:28.470Z,30.80
2017-05-18T19:19:55.434Z,32.88
2017-05-18T19:22:28.427Z,32.58
2017-05-18T19:24:58.074Z,34.16
2017-05-18T19:27:24.498Z,33.68
2017-05-18T19:29:57.574Z,37.00
2017-05-18T19:32:24.078Z,34.70
2017-05-18T19:34:51.755Z,35.30
2017-05-18T19:37:18.239Z,33.58
2017-05-18T19:39:44.806Z,36.04
2017-05-18T19:42:11.682Z,37.48
2017-05-18T19:44:43.301Z,37.62
2017-05-18T19:47:12.659Z,36.02
2017-05-18T19:49:39.192Z,36.18
2017-05-18T19:52:11.240Z,37.70
2017-05-18T19:57:13.330Z,42.04
2017-05-18T20:14:42.470Z,41.96
2017-05-18T20:17:09.000Z,41.40
2017-05-18T20:19:45.404Z,42.18
2017-05-18T20:22:11.764Z,44.76
2017-05-18T20:24:45.427Z,48.12
2017-05-18T20:27:11.805Z,49.26
2017-05-18T20:29:38.230Z,51.00
2017-05-18T20:32:04.585Z,37.18
2017-05-18T20:34:30.939Z,41.12
2017-05-18T20:36:57.280Z,47.54
2017-05-18T20:39:23.615Z,46.90
2017-05-18T20:41:49.952Z,46.68
2017-05-18T20:44:16.313Z,43.94
2017-05-18T20:46:42.655Z,41.96
2017-05-18T20:49:09.094Z,39.14
2017-05-18T20:51:35.429Z,37.80
2017-05-18T20:54:01.811Z,40.50
2017-05-18T20:56:28.148Z,42.70
2017-05-18T20:58:54.566Z,40.52
2017-05-18T21:01:20.931Z,45.64
2017-05-18T21:03:47.281Z,40.14
2017-05-18T21:06:13.591Z,42.22
2017-05-18T21:08:39.923Z,46.64
2017-05-18T21:11:06.247Z,41.46
2017-05-18T21:13:32.575Z,42.72
2017-05-18T21:15:58.921Z,44.22
2017-05-18T21:18:25.265Z,45.82
2017-05-18T21:20:51.651Z,38.76
2017-05-18T21:23:17.990Z,39.68
2017-05-18T21:25:44.345Z,37.76
2017-05-18T21:28:10.716Z,38.06
2017-05-18T21:30:37.088Z,40.26
2017-05-18T21:33:03.454Z,36.88
2017-05-18T21:35:29.806Z,36.20
2017-05-18T21:37:56.153Z,38.60
2017-05-18T21:40:22.530Z,36.94
2017-05-18T21:42:48.848Z,37.60
2017-05-18T21:45:15.228Z,38.98
2017-05-18T21:47:41.577Z,38.80
2017-05-18T21:50:07.910Z,36.04
2017-05-18T21:52:34.322Z,39.60
2017-05-18T21:55:00.691Z,38.62
2017-05-18T21:57:27.049Z,39.20
2017-05-18T21:59:53.408Z,41.60
2017-05-18T22:02:19.723Z,34.70
2017-05-18T22:04:46.081Z,40.10
2017-05-18T22:07:12.432Z,43.00
2017-05-18T22:09:38.785Z,43.88
2017-05-18T22:12:05.140Z,37.60
2017-05-18T22:14:31.493Z,38.76
2017-05-18T22:16:57.887Z,42.04
2017-05-18T22:19:24.341Z,43.14
2017-05-18T22:21:50.879Z,39.82
2017-05-18T22:24:17.442Z,41.50
2017-05-18T22:26:43.795Z,43.42
2017-05-18T22:29:10.223Z,39.10
2017-05-18T22:31:36.590Z,39.18
2017-05-18T22:34:02.940Z,36.06
2017-05-18T22:36:29.389Z,33.90
2017-05-18T22:38:55.949Z,33.16
2017-05-18T22:41:22.292Z,37.46
2017-05-18T22:43:49.261Z,35.84
2017-05-18T22:46:15.546Z,32.80
2017-05-18T22:48:41.885Z,33.46
2017-05-18T22:51:08.273Z,36.10
2017-05-18T22:53:34.776Z,37.20
2017-05-18T22:56:01.676Z,37.94
2017-05-18T22:58:27.981Z,38.20
2017-05-18T23:00:54.285Z,43.48
2017-05-18T23:03:20.615Z,42.12
2017-05-18T23:05:48.058Z,43.48
2017-05-18T23:08:14.903Z,46.20
2017-05-18T23:10:41.782Z,42.70
2017-05-18T23:13:08.219Z,43.74
2017-05-18T23:15:34.581Z,44.16
2017-05-18T23:18:00.972Z,34.14
2017-05-18T23:20:27.330Z,36.28
2017-05-18T23:22:54.012Z,43.02
2017-05-18T23:25:20.346Z,36.04
2017-05-18T23:27:46.701Z,37.08
2017-05-18T23:30:13.039Z,37.72
2017-05-18T23:32:39.861Z,43.70
2017-05-18T23:35:07.453Z,41.90
2017-05-18T23:37:33.921Z,35.00
2017-05-18T23:40:00.243Z,40.96
2017-05-18T23:42:26.582Z,38.40
2017-05-18T23:44:53.119Z,44.68
2017-05-18T23:47:19.745Z,33.68
2017-05-18T23:49:46.061Z,34.98
2017-05-18T23:52:12.786Z,33.56
2017-05-18T23:54:39.118Z,37.48
2017-05-18T23:57:05.842Z,38.44
2017-05-18T23:59:32.172Z,37.74
